sensor_id;sensor_type;location;lat;lon;timestamp;pressure;altitude;pressure_sealevel;temperature;humidity
55687;BME280;41911;52.362;4.978;2023-04-01T00:00:18;99011.56;;;9.57;57.64
55687;BME280;41911;52.362;4.978;2023-04-01T00:00:51;99014.09;;;9.14;57.55
55687;BME280;41911;52.362;4.978;2023-04-01T00:01:22;99010.18;;;9.05;57.77
55687;BME280;41911;52.362;4.978;2023-04-01T00:01:53;99013.09;;;8.94;58.05
55687;BME280;41911;52.362;4.978;2023-04-01T00:02:24;99011.27;;;8.81;58.69
55687;BME280;41911;52.362;4.978;2023-04-01T00:02:55;99013.19;;;8.56;59.36
55687;BME280;41911;52.362;4.978;2023-04-01T00:03:26;99017.15;;;8.51;59.31
55687;BME280;41911;52.362;4.978;2023-04-01T00:03:58;99014.82;;;9.12;58.98
55687;BME280;41911;52.362;4.978;2023-04-01T00:04:29;99008.89;;;9.30;58.59
55687;BME280;41911;52.362;4.978;2023-04-01T00:05:00;99012.00;;;9.18;58.70
55687;BME280;41911;52.362;4.978;2023-04-01T00:05:31;99012.09;;;9.25;58.54
55687;BME280;41911;52.362;4.978;2023-04-01T00:06:02;99010.01;;;9.40;58.46
55687;BME280;41911;52.362;4.978;2023-04-01T00:06:33;99010.89;;;9.41;58.39
55687;BME280;41911;52.362;4.978;2023-04-01T00:07:04;99009.57;;;9.21;58.16
55687;BME280;41911;52.362;4.978;2023-04-01T00:07:35;99010.63;;;9.21;58.63
55687;BME280;41911;52.362;4.978;2023-04-01T00:08:06;99014.19;;;8.71;58.94
55687;BME280;41911;52.362;4.978;2023-04-01T00:08:37;99012.94;;;8.95;59.22
55687;BME280;41911;52.362;4.978;2023-04-01T00:09:09;99016.27;;;9.07;59.44
55687;BME280;41911;52.362;4.978;2023-04-01T00:09:40;99013.65;;;8.73;59.50
55687;BME280;41911;52.362;4.978;2023-04-01T00:10:12;99013.03;;;8.60;59.90
55687;BME280;41911;52.362;4.978;2023-04-01T00:10:44;99017.59;;;8.31;60.43
55687;BME280;41911;52.362;4.978;2023-04-01T00:11:15;99018.26;;;8.07;60.82
55687;BME280;41911;52.362;4.978;2023-04-01T00:11:47;99016.95;;;8.13;60.85
55687;BME280;41911;52.362;4.978;2023-04-01T00:12:18;99017.14;;;8.43;60.38
55687;BME280;41911;52.362;4.978;2023-04-01T00:12:49;99019.23;;;8.04;60.99
55687;BME280;41911;52.362;4.978;2023-04-01T00:13:20;99017.45;;;8.48;60.27
55687;BME280;41911;52.362;4.978;2023-04-01T00:13:51;99018.10;;;8.86;59.62
55687;BME280;41911;52.362;4.978;2023-04-01T00:14:22;99015.82;;;8.54;59.92
55687;BME280;41911;52.362;4.978;2023-04-01T00:14:53;99016.47;;;8.59;60.02
55687;BME280;41911;52.362;4.978;2023-04-01T00:15:24;99015.60;;;9.00;59.95
55687;BME280;41911;52.362;4.978;2023-04-01T00:15:56;99018.49;;;8.69;59.76
55687;BME280;41911;52.362;4.978;2023-04-01T00:16:27;99019.22;;;8.46;59.99
55687;BME280;41911;52.362;4.978;2023-04-01T00:16:58;99018.18;;;8.32;60.32
55687;BME280;41911;52.362;4.978;2023-04-01T00:17:29;99015.24;;;8.21;60.55
55687;BME280;41911;52.362;4.978;2023-04-01T00:18:00;99014.92;;;8.67;59.78
55687;BME280;41911;52.362;4.978;2023-04-01T00:18:31;99017.61;;;8.62;59.99
55687;BME280;41911;52.362;4.978;2023-04-01T00:19:02;99016.26;;;9.07;59.69
55687;BME280;41911;52.362;4.978;2023-04-01T00:19:33;99016.78;;;8.63;59.81
55687;BME280;41911;52.362;4.978;2023-04-01T00:20:06;99019.11;;;8.28;60.44
55687;BME280;41911;52.362;4.978;2023-04-01T00:20:38;99016.47;;;8.41;60.68
55687;BME280;41911;52.362;4.978;2023-04-01T00:21:09;99022.02;;;8.31;61.07
55687;BME280;41911;52.362;4.978;2023-04-01T00:21:40;99023.36;;;8.25;61.33
55687;BME280;41911;52.362;4.978;2023-04-01T00:22:11;99021.60;;;8.00;61.67
55687;BME280;41911;52.362;4.978;2023-04-01T00:22:42;99024.95;;;7.98;61.29
55687;BME280;41911;52.362;4.978;2023-04-01T00:23:13;99021.52;;;8.06;60.85
55687;BME280;41911;52.362;4.978;2023-04-01T00:23:44;99022.19;;;8.63;60.76
55687;BME280;41911;52.362;4.978;2023-04-01T00:24:15;99024.35;;;8.10;60.84
55687;BME280;41911;52.362;4.978;2023-04-01T00:24:46;99023.42;;;8.32;60.78
55687;BME280;41911;52.362;4.978;2023-04-01T00:25:18;99025.04;;;8.07;61.05
55687;BME280;41911;52.362;4.978;2023-04-01T00:25:49;99024.69;;;8.07;61.30
55687;BME280;41911;52.362;4.978;2023-04-01T00:26:21;99026.48;;;7.84;61.26
55687;BME280;41911;52.362;4.978;2023-04-01T00:26:52;99021.92;;;8.30;60.74
55687;BME280;41911;52.362;4.978;2023-04-01T00:27:23;99026.55;;;8.21;60.66
55687;BME280;41911;52.362;4.978;2023-04-01T00:27:54;99026.16;;;8.22;60.43
55687;BME280;41911;52.362;4.978;2023-04-01T00:28:26;99024.79;;;8.09;60.73
55687;BME280;41911;52.362;4.978;2023-04-01T00:28:57;99027.41;;;8.41;60.67
55687;BME280;41911;52.362;4.978;2023-04-01T00:29:28;99022.61;;;8.25;61.01
55687;BME280;41911;52.362;4.978;2023-04-01T00:29:59;99026.55;;;8.41;60.70
55687;BME280;41911;52.362;4.978;2023-04-01T00:30:30;99025.18;;;8.32;60.74
55687;BME280;41911;52.362;4.978;2023-04-01T00:31:05;99027.22;;;8.11;60.77
55687;BME280;41911;52.362;4.978;2023-04-01T00:31:36;99027.21;;;7.99;60.81
55687;BME280;41911;52.362;4.978;2023-04-01T00:32:06;99026.45;;;8.36;60.73
55687;BME280;41911;52.362;4.978;2023-04-01T00:32:38;99028.48;;;8.40;60.42
55687;BME280;41911;52.362;4.978;2023-04-01T00:33:09;99025.91;;;8.86;59.73
55687;BME280;41911;52.362;4.978;2023-04-01T00:33:41;99028.26;;;8.61;60.01
55687;BME280;41911;52.362;4.978;2023-04-01T00:34:12;99026.79;;;8.34;59.91
55687;BME280;41911;52.362;4.978;2023-04-01T00:34:47;99031.22;;;8.96;60.08
55687;BME280;41911;52.362;4.978;2023-04-01T00:35:20;99027.41;;;8.37;60.15
55687;BME280;41911;52.362;4.978;2023-04-01T00:35:51;99026.78;;;8.38;60.11
55687;BME280;41911;52.362;4.978;2023-04-01T00:36:22;99025.61;;;8.10;60.64
55687;BME280;41911;52.362;4.978;2023-04-01T00:36:53;99027.11;;;8.62;60.51
55687;BME280;41911;52.362;4.978;2023-04-01T00:37:24;99024.90;;;8.10;60.61
55687;BME280;41911;52.362;4.978;2023-04-01T00:37:56;99023.78;;;8.76;60.15
55687;BME280;41911;52.362;4.978;2023-04-01T00:38:27;99024.10;;;8.89;59.81
55687;BME280;41911;52.362;4.978;2023-04-01T00:38:58;99024.46;;;8.35;60.12
55687;BME280;41911;52.362;4.978;2023-04-01T00:39:29;99025.10;;;8.05;60.74
55687;BME280;41911;52.362;4.978;2023-04-01T00:40:00;99024.71;;;8.15;60.57
55687;BME280;41911;52.362;4.978;2023-04-01T00:40:34;99020.78;;;8.53;60.00
55687;BME280;41911;52.362;4.978;2023-04-01T00:41:06;99026.06;;;9.10;59.54
55687;BME280;41911;52.362;4.978;2023-04-01T00:41:37;99021.81;;;8.99;59.10
55687;BME280;41911;52.362;4.978;2023-04-01T00:42:09;99022.92;;;8.87;59.29
55687;BME280;41911;52.362;4.978;2023-04-01T00:42:40;99024.23;;;8.98;59.11
55687;BME280;41911;52.362;4.978;2023-04-01T00:43:13;99023.40;;;8.85;59.40
55687;BME280;41911;52.362;4.978;2023-04-01T00:43:47;99021.19;;;9.07;58.93
55687;BME280;41911;52.362;4.978;2023-04-01T00:44:20;99025.63;;;8.89;59.17
55687;BME280;41911;52.362;4.978;2023-04-01T00:44:53;99021.17;;;9.06;58.96
55687;BME280;41911;52.362;4.978;2023-04-01T00:45:29;99019.08;;;9.40;58.50
55687;BME280;41911;52.362;4.978;2023-04-01T00:46:01;99023.47;;;9.09;58.59
55687;BME280;41911;52.362;4.978;2023-04-01T00:46:32;99026.36;;;8.85;59.22
55687;BME280;41911;52.362;4.978;2023-04-01T00:47:03;99026.87;;;8.95;58.83
55687;BME280;41911;52.362;4.978;2023-04-01T00:47:34;99026.88;;;9.10;58.66
55687;BME280;41911;52.362;4.978;2023-04-01T00:48:09;99027.46;;;9.14;58.43
55687;BME280;41911;52.362;4.978;2023-04-01T00:48:45;99025.54;;;9.25;58.12
55687;BME280;41911;52.362;4.978;2023-04-01T00:49:21;99024.82;;;9.27;58.12
55687;BME280;41911;52.362;4.978;2023-04-01T00:49:54;99029.96;;;8.90;58.16
55687;BME280;41911;52.362;4.978;2023-04-01T00:50:26;99028.89;;;9.09;58.06
55687;BME280;41911;52.362;4.978;2023-04-01T00:51:01;99028.79;;;9.37;57.94
55687;BME280;41911;52.362;4.978;2023-04-01T00:51:33;99025.62;;;9.18;58.20
55687;BME280;41911;52.362;4.978;2023-04-01T00:52:06;99031.89;;;9.12;58.66
55687;BME280;41911;52.362;4.978;2023-04-01T00:52:37;99033.57;;;8.93;58.74
55687;BME280;41911;52.362;4.978;2023-04-01T00:53:09;99030.50;;;8.59;58.73
55687;BME280;41911;52.362;4.978;2023-04-01T00:53:44;99032.27;;;8.46;59.02
55687;BME280;41911;52.362;4.978;2023-04-01T00:54:16;99034.81;;;8.40;59.47
55687;BME280;41911;52.362;4.978;2023-04-01T00:54:52;99035.21;;;8.42;59.59
55687;BME280;41911;52.362;4.978;2023-04-01T00:55:26;99033.74;;;8.80;59.42
55687;BME280;41911;52.362;4.978;2023-04-01T00:56:01;99031.04;;;9.01;58.72
55687;BME280;41911;52.362;4.978;2023-04-01T00:56:35;99029.97;;;9.20;58.14
55687;BME280;41911;52.362;4.978;2023-04-01T00:57:09;99030.38;;;9.69;57.96
55687;BME280;41911;52.362;4.978;2023-04-01T00:57:46;99029.46;;;9.42;57.78
55687;BME280;41911;52.362;4.978;2023-04-01T00:58:21;99029.44;;;9.06;57.86
55687;BME280;41911;52.362;4.978;2023-04-01T00:58:57;99030.26;;;9.09;58.34
55687;BME280;41911;52.362;4.978;2023-04-01T00:59:31;99027.86;;;9.28;57.95
55687;BME280;41911;52.362;4.978;2023-04-01T01:00:07;99032.52;;;9.20;57.77
55687;BME280;41911;52.362;4.978;2023-04-01T01:00:40;99026.95;;;9.40;57.53
55687;BME280;41911;52.362;4.978;2023-04-01T01:01:11;99031.19;;;9.27;56.95
55687;BME280;41911;52.362;4.978;2023-04-01T01:01:42;99030.73;;;9.48;57.00
55687;BME280;41911;52.362;4.978;2023-04-01T01:02:14;99031.04;;;9.41;56.72
55687;BME280;41911;52.362;4.978;2023-04-01T01:02:45;99031.38;;;9.33;56.72
55687;BME280;41911;52.362;4.978;2023-04-01T01:03:17;99032.07;;;9.15;56.81
55687;BME280;41911;52.362;4.978;2023-04-01T01:03:48;99029.63;;;9.35;56.89
55687;BME280;41911;52.362;4.978;2023-04-01T01:04:23;99029.97;;;8.99;57.41
55687;BME280;41911;52.362;4.978;2023-04-01T01:04:54;99030.91;;;9.54;56.93
55687;BME280;41911;52.362;4.978;2023-04-01T01:05:35;99032.14;;;9.61;56.84
55687;BME280;41911;52.362;4.978;2023-04-01T01:06:14;99032.26;;;9.73;56.75
55687;BME280;41911;52.362;4.978;2023-04-01T01:06:58;99035.20;;;9.66;56.07
55687;BME280;41911;52.362;4.978;2023-04-01T01:07:35;99032.43;;;9.71;56.03
55687;BME280;41911;52.362;4.978;2023-04-01T01:08:17;99033.67;;;9.84;55.51
55687;BME280;41911;52.362;4.978;2023-04-01T01:09:04;99034.48;;;9.90;55.69
55687;BME280;41911;52.362;4.978;2023-04-01T01:09:45;99036.17;;;9.97;55.51
55687;BME280;41911;52.362;4.978;2023-04-01T01:10:25;99035.60;;;9.85;55.74
55687;BME280;41911;52.362;4.978;2023-04-01T01:10:59;99034.53;;;10.21;55.21
55687;BME280;41911;52.362;4.978;2023-04-01T01:11:35;99035.47;;;9.86;55.35
55687;BME280;41911;52.362;4.978;2023-04-01T01:12:10;99035.20;;;10.29;55.21
55687;BME280;41911;52.362;4.978;2023-04-01T01:12:47;99038.67;;;10.08;55.21
55687;BME280;41911;52.362;4.978;2023-04-01T01:13:26;99037.94;;;10.29;54.79
55687;BME280;41911;52.362;4.978;2023-04-01T01:14:10;99038.50;;;10.26;54.84
55687;BME280;41911;52.362;4.978;2023-04-01T01:14:56;99036.36;;;10.28;54.66
55687;BME280;41911;52.362;4.978;2023-04-01T01:15:36;99036.28;;;9.84;54.47
55687;BME280;41911;52.362;4.978;2023-04-01T01:16:14;99037.33;;;10.11;54.60
55687;BME280;41911;52.362;4.978;2023-04-01T01:16:50;99038.76;;;9.73;54.55
55687;BME280;41911;52.362;4.978;2023-04-01T01:17:32;99040.08;;;9.81;54.62
55687;BME280;41911;52.362;4.978;2023-04-01T01:18:08;99039.40;;;9.91;54.46
55687;BME280;41911;52.362;4.978;2023-04-01T01:18:47;99041.83;;;9.91;54.52
55687;BME280;41911;52.362;4.978;2023-04-01T01:19:48;99042.00;;;10.40;54.15
55687;BME280;41911;52.362;4.978;2023-04-01T01:20:52;99044.29;;;10.45;54.03
55687;BME280;41911;52.362;4.978;2023-04-01T01:21:42;99044.61;;;10.25;54.14
55687;BME280;41911;52.362;4.978;2023-04-01T01:22:34;99043.13;;;10.29;53.89
55687;BME280;41911;52.362;4.978;2023-04-01T01:23:30;99042.12;;;10.65;53.95
55687;BME280;41911;52.362;4.978;2023-04-01T01:24:13;99045.77;;;10.43;53.79
55687;BME280;41911;52.362;4.978;2023-04-01T01:25:04;99047.27;;;10.49;53.61
55687;BME280;41911;52.362;4.978;2023-04-01T01:25:45;99046.75;;;10.06;53.64
55687;BME280;41911;52.362;4.978;2023-04-01T01:26:42;99047.23;;;10.25;53.89
55687;BME280;41911;52.362;4.978;2023-04-01T01:27:16;99045.21;;;10.45;53.85
55687;BME280;41911;52.362;4.978;2023-04-01T01:27:55;99045.14;;;10.58;53.46
55687;BME280;41911;52.362;4.978;2023-04-01T01:28:42;99046.02;;;10.42;53.46
55687;BME280;41911;52.362;4.978;2023-04-01T01:29:39;99045.43;;;10.43;53.73
55687;BME280;41911;52.362;4.978;2023-04-01T01:30:21;99049.19;;;10.41;53.70
55687;BME280;41911;52.362;4.978;2023-04-01T01:31:03;99045.66;;;10.44;53.19
55687;BME280;41911;52.362;4.978;2023-04-01T01:31:47;99049.33;;;10.77;53.10
55687;BME280;41911;52.362;4.978;2023-04-01T01:32:37;99049.35;;;10.02;53.52
55687;BME280;41911;52.362;4.978;2023-04-01T01:33:24;99052.00;;;10.29;53.53
55687;BME280;41911;52.362;4.978;2023-04-01T01:34:09;99052.28;;;10.14;53.36
55687;BME280;41911;52.362;4.978;2023-04-01T01:34:49;99052.96;;;10.39;53.35
55687;BME280;41911;52.362;4.978;2023-04-01T01:35:26;99053.22;;;10.44;53.39
55687;BME280;41911;52.362;4.978;2023-04-01T01:35:59;99054.24;;;10.39;53.50
55687;BME280;41911;52.362;4.978;2023-04-01T01:36:33;99057.11;;;10.17;53.71
55687;BME280;41911;52.362;4.978;2023-04-01T01:37:08;99058.40;;;10.16;53.88
55687;BME280;41911;52.362;4.978;2023-04-01T01:37:44;99057.57;;;10.19;53.96
55687;BME280;41911;52.362;4.978;2023-04-01T01:38:18;99056.29;;;10.08;53.88
55687;BME280;41911;52.362;4.978;2023-04-01T01:38:56;99057.64;;;10.10;54.03
55687;BME280;41911;52.362;4.978;2023-04-01T01:39:31;99057.02;;;10.05;53.97
55687;BME280;41911;52.362;4.978;2023-04-01T01:40:07;99059.21;;;10.09;53.78
55687;BME280;41911;52.362;4.978;2023-04-01T01:40:42;99059.40;;;10.21;53.87
55687;BME280;41911;52.362;4.978;2023-04-01T01:41:15;99060.94;;;10.25;53.85
55687;BME280;41911;52.362;4.978;2023-04-01T01:41:49;99061.22;;;10.20;53.85
55687;BME280;41911;52.362;4.978;2023-04-01T01:42:20;99060.82;;;10.26;53.74
55687;BME280;41911;52.362;4.978;2023-04-01T01:42:56;99062.24;;;10.36;53.68
55687;BME280;41911;52.362;4.978;2023-04-01T01:43:32;99065.78;;;10.48;53.63
55687;BME280;41911;52.362;4.978;2023-04-01T01:44:06;99063.57;;;10.50;53.39
55687;BME280;41911;52.362;4.978;2023-04-01T01:44:39;99064.09;;;10.28;53.20
55687;BME280;41911;52.362;4.978;2023-04-01T01:45:15;99065.48;;;10.51;53.16
55687;BME280;41911;52.362;4.978;2023-04-01T01:45:50;99063.90;;;10.51;53.40
55687;BME280;41911;52.362;4.978;2023-04-01T01:46:26;99066.71;;;10.47;53.39
55687;BME280;41911;52.362;4.978;2023-04-01T01:46:58;99064.99;;;10.40;53.46
55687;BME280;41911;52.362;4.978;2023-04-01T01:47:30;99066.20;;;10.24;53.59
55687;BME280;41911;52.362;4.978;2023-04-01T01:48:04;99067.01;;;10.31;53.37
55687;BME280;41911;52.362;4.978;2023-04-01T01:48:36;99068.42;;;10.11;53.56
55687;BME280;41911;52.362;4.978;2023-04-01T01:49:10;99068.22;;;9.82;53.72
55687;BME280;41911;52.362;4.978;2023-04-01T01:49:42;99067.69;;;9.98;53.89
55687;BME280;41911;52.362;4.978;2023-04-01T01:50:15;99068.41;;;9.66;54.26
55687;BME280;41911;52.362;4.978;2023-04-01T01:50:47;99069.27;;;9.76;54.30
55687;BME280;41911;52.362;4.978;2023-04-01T01:51:20;99070.98;;;10.01;54.25
55687;BME280;41911;52.362;4.978;2023-04-01T01:51:53;99069.12;;;9.90;54.19
55687;BME280;41911;52.362;4.978;2023-04-01T01:52:29;99071.42;;;9.89;54.04
55687;BME280;41911;52.362;4.978;2023-04-01T01:53:03;99074.42;;;9.39;54.92
55687;BME280;41911;52.362;4.978;2023-04-01T01:53:35;99072.94;;;9.64;55.07
55687;BME280;41911;52.362;4.978;2023-04-01T01:54:06;99076.19;;;9.47;55.25
55687;BME280;41911;52.362;4.978;2023-04-01T01:54:47;99074.77;;;9.56;55.64
55687;BME280;41911;52.362;4.978;2023-04-01T01:55:28;99075.19;;;8.65;56.28
55687;BME280;41911;52.362;4.978;2023-04-01T01:56:00;99074.98;;;9.04;56.67
55687;BME280;41911;52.362;4.978;2023-04-01T01:56:32;99080.20;;;8.86;57.05
55687;BME280;41911;52.362;4.978;2023-04-01T01:57:07;99077.19;;;9.02;56.70
55687;BME280;41911;52.362;4.978;2023-04-01T01:57:39;99077.01;;;8.78;56.66
55687;BME280;41911;52.362;4.978;2023-04-01T01:58:16;99078.81;;;9.14;56.63
55687;BME280;41911;52.362;4.978;2023-04-01T01:58:52;99080.42;;;9.12;56.54
55687;BME280;41911;52.362;4.978;2023-04-01T01:59:27;99079.46;;;9.10;56.68
55687;BME280;41911;52.362;4.978;2023-04-01T02:00:02;99083.25;;;8.93;56.90
55687;BME280;41911;52.362;4.978;2023-04-01T02:00:35;99081.69;;;8.93;57.08
55687;BME280;41911;52.362;4.978;2023-04-01T02:01:09;99081.59;;;9.17;56.74
55687;BME280;41911;52.362;4.978;2023-04-01T02:01:47;99081.13;;;9.56;56.46
55687;BME280;41911;52.362;4.978;2023-04-01T02:02:19;99085.81;;;9.10;56.83
55687;BME280;41911;52.362;4.978;2023-04-01T02:02:53;99083.70;;;9.34;56.55
55687;BME280;41911;52.362;4.978;2023-04-01T02:03:26;99082.11;;;9.47;56.40
55687;BME280;41911;52.362;4.978;2023-04-01T02:03:58;99083.82;;;9.53;56.21
55687;BME280;41911;52.362;4.978;2023-04-01T02:04:29;99085.47;;;9.68;56.09
55687;BME280;41911;52.362;4.978;2023-04-01T02:05:01;99085.72;;;9.64;56.14
55687;BME280;41911;52.362;4.978;2023-04-01T02:05:34;99088.75;;;9.88;55.75
55687;BME280;41911;52.362;4.978;2023-04-01T02:06:08;99088.86;;;9.91;55.68
55687;BME280;41911;52.362;4.978;2023-04-01T02:06:46;99090.24;;;9.91;55.69
55687;BME280;41911;52.362;4.978;2023-04-01T02:07:23;99089.76;;;9.47;56.25
55687;BME280;41911;52.362;4.978;2023-04-01T02:08:01;99091.33;;;9.68;55.88
55687;BME280;41911;52.362;4.978;2023-04-01T02:08:37;99094.02;;;9.47;56.08
55687;BME280;41911;52.362;4.978;2023-04-01T02:09:13;99092.08;;;9.58;55.92
55687;BME280;41911;52.362;4.978;2023-04-01T02:09:44;99092.25;;;9.61;56.02
55687;BME280;41911;52.362;4.978;2023-04-01T02:10:15;99096.44;;;9.66;55.97
55687;BME280;41911;52.362;4.978;2023-04-01T02:10:54;99098.27;;;9.87;55.54
55687;BME280;41911;52.362;4.978;2023-04-01T02:11:34;99096.91;;;9.61;56.06
55687;BME280;41911;52.362;4.978;2023-04-01T02:12:09;99099.57;;;9.57;55.87
55687;BME280;41911;52.362;4.978;2023-04-01T02:12:42;99099.75;;;10.04;55.26
55687;BME280;41911;52.362;4.978;2023-04-01T02:13:18;99097.62;;;9.58;55.94
55687;BME280;41911;52.362;4.978;2023-04-01T02:13:53;99099.88;;;9.55;56.01
55687;BME280;41911;52.362;4.978;2023-04-01T02:14:28;99099.56;;;9.38;56.27
55687;BME280;41911;52.362;4.978;2023-04-01T02:15:06;99101.71;;;9.49;56.29
55687;BME280;41911;52.362;4.978;2023-04-01T02:15:42;99099.95;;;9.68;55.94
55687;BME280;41911;52.362;4.978;2023-04-01T02:16:20;99101.83;;;9.59;55.56
55687;BME280;41911;52.362;4.978;2023-04-01T02:16:56;99104.83;;;9.89;55.49
55687;BME280;41911;52.362;4.978;2023-04-01T02:17:30;99108.00;;;9.20;56.57
55687;BME280;41911;52.362;4.978;2023-04-01T02:18:02;99106.02;;;9.21;56.68
55687;BME280;41911;52.362;4.978;2023-04-01T02:18:35;99107.23;;;9.37;56.53
55687;BME280;41911;52.362;4.978;2023-04-01T02:19:07;99108.74;;;9.65;56.19
55687;BME280;41911;52.362;4.978;2023-04-01T02:19:42;99106.76;;;9.47;56.29
55687;BME280;41911;52.362;4.978;2023-04-01T02:20:21;99110.68;;;9.42;56.38
55687;BME280;41911;52.362;4.978;2023-04-01T02:20:53;99110.57;;;9.85;56.62
55687;BME280;41911;52.362;4.978;2023-04-01T02:21:27;99115.30;;;9.17;57.06
55687;BME280;41911;52.362;4.978;2023-04-01T02:22:02;99115.65;;;9.32;56.68
55687;BME280;41911;52.362;4.978;2023-04-01T02:22:37;99115.05;;;8.95;57.18
55687;BME280;41911;52.362;4.978;2023-04-01T02:23:10;99114.41;;;9.36;56.67
55687;BME280;41911;52.362;4.978;2023-04-01T02:23:42;99116.12;;;9.50;56.86
55687;BME280;41911;52.362;4.978;2023-04-01T02:24:14;99114.04;;;9.04;57.14
55687;BME280;41911;52.362;4.978;2023-04-01T02:24:46;99118.17;;;9.07;57.00
55687;BME280;41911;52.362;4.978;2023-04-01T02:25:22;99119.06;;;9.14;57.12
55687;BME280;41911;52.362;4.978;2023-04-01T02:25:54;99114.42;;;9.95;56.73
55687;BME280;41911;52.362;4.978;2023-04-01T02:26:26;99116.43;;;9.62;56.32
55687;BME280;41911;52.362;4.978;2023-04-01T02:26:57;99118.53;;;9.69;56.30
55687;BME280;41911;52.362;4.978;2023-04-01T02:27:28;99118.22;;;9.90;56.03
55687;BME280;41911;52.362;4.978;2023-04-01T02:28:02;99119.56;;;9.70;56.13
55687;BME280;41911;52.362;4.978;2023-04-01T02:28:39;99119.80;;;9.73;56.19
55687;BME280;41911;52.362;4.978;2023-04-01T02:29:11;99116.79;;;9.79;56.06
55687;BME280;41911;52.362;4.978;2023-04-01T02:29:43;99120.55;;;9.90;55.82
55687;BME280;41911;52.362;4.978;2023-04-01T02:30:15;99117.63;;;9.60;55.81
55687;BME280;41911;52.362;4.978;2023-04-01T02:30:48;99120.88;;;9.94;56.03
55687;BME280;41911;52.362;4.978;2023-04-01T02:31:21;99122.48;;;9.78;55.69
55687;BME280;41911;52.362;4.978;2023-04-01T02:31:54;99124.08;;;9.74;55.80
55687;BME280;41911;52.362;4.978;2023-04-01T02:32:27;99123.83;;;10.29;55.63
55687;BME280;41911;52.362;4.978;2023-04-01T02:33:00;99123.76;;;10.46;55.41
55687;BME280;41911;52.362;4.978;2023-04-01T02:33:32;99124.46;;;9.88;55.18
55687;BME280;41911;52.362;4.978;2023-04-01T02:34:04;99124.83;;;10.02;55.17
55687;BME280;41911;52.362;4.978;2023-04-01T02:34:35;99125.74;;;9.67;55.72
55687;BME280;41911;52.362;4.978;2023-04-01T02:35:09;99127.00;;;10.25;55.53
55687;BME280;41911;52.362;4.978;2023-04-01T02:35:40;99127.53;;;10.24;55.41
55687;BME280;41911;52.362;4.978;2023-04-01T02:36:13;99128.44;;;9.79;55.20
55687;BME280;41911;52.362;4.978;2023-04-01T02:36:45;99129.37;;;10.05;55.17
55687;BME280;41911;52.362;4.978;2023-04-01T02:37:17;99127.75;;;10.19;55.13
55687;BME280;41911;52.362;4.978;2023-04-01T02:37:50;99128.42;;;10.17;55.18
55687;BME280;41911;52.362;4.978;2023-04-01T02:38:22;99131.17;;;10.34;54.97
55687;BME280;41911;52.362;4.978;2023-04-01T02:38:54;99131.46;;;10.69;54.75
55687;BME280;41911;52.362;4.978;2023-04-01T02:39:26;99132.97;;;10.14;54.92
55687;BME280;41911;52.362;4.978;2023-04-01T02:39:59;99131.15;;;9.63;55.32
55687;BME280;41911;52.362;4.978;2023-04-01T02:40:41;99131.35;;;9.86;55.49
55687;BME280;41911;52.362;4.978;2023-04-01T02:41:12;99135.72;;;10.05;55.41
55687;BME280;41911;52.362;4.978;2023-04-01T02:41:45;99136.01;;;10.31;55.38
55687;BME280;41911;52.362;4.978;2023-04-01T02:42:16;99135.95;;;9.63;55.75
55687;BME280;41911;52.362;4.978;2023-04-01T02:42:47;99135.69;;;10.06;55.64
55687;BME280;41911;52.362;4.978;2023-04-01T02:43:18;99135.84;;;9.62;55.83
55687;BME280;41911;52.362;4.978;2023-04-01T02:43:49;99135.82;;;9.42;55.78
55687;BME280;41911;52.362;4.978;2023-04-01T02:44:20;99137.10;;;9.88;56.06
55687;BME280;41911;52.362;4.978;2023-04-01T02:44:51;99137.01;;;9.78;56.28
55687;BME280;41911;52.362;4.978;2023-04-01T02:45:22;99137.84;;;9.68;56.43
55687;BME280;41911;52.362;4.978;2023-04-01T02:45:54;99137.67;;;9.34;56.54
55687;BME280;41911;52.362;4.978;2023-04-01T02:46:25;99140.26;;;9.48;56.47
55687;BME280;41911;52.362;4.978;2023-04-01T02:46:56;99138.72;;;9.75;56.08
55687;BME280;41911;52.362;4.978;2023-04-01T02:47:27;99138.52;;;10.07;55.93
55687;BME280;41911;52.362;4.978;2023-04-01T02:47:58;99139.41;;;9.88;55.82
55687;BME280;41911;52.362;4.978;2023-04-01T02:48:30;99140.50;;;10.12;55.90
55687;BME280;41911;52.362;4.978;2023-04-01T02:49:01;99143.89;;;9.68;56.36
55687;BME280;41911;52.362;4.978;2023-04-01T02:49:32;99143.90;;;9.32;56.65
55687;BME280;41911;52.362;4.978;2023-04-01T02:50:04;99147.52;;;9.82;56.53
55687;BME280;41911;52.362;4.978;2023-04-01T02:50:36;99147.69;;;9.81;56.37
55687;BME280;41911;52.362;4.978;2023-04-01T02:51:07;99149.86;;;9.59;56.88
55687;BME280;41911;52.362;4.978;2023-04-01T02:51:39;99149.07;;;9.22;57.23
55687;BME280;41911;52.362;4.978;2023-04-01T02:52:10;99151.16;;;9.31;57.32
55687;BME280;41911;52.362;4.978;2023-04-01T02:52:41;99151.43;;;9.16;57.16
55687;BME280;41911;52.362;4.978;2023-04-01T02:53:12;99149.24;;;9.80;56.62
55687;BME280;41911;52.362;4.978;2023-04-01T02:53:43;99148.54;;;9.94;56.51
55687;BME280;41911;52.362;4.978;2023-04-01T02:54:14;99149.07;;;9.76;56.45
55687;BME280;41911;52.362;4.978;2023-04-01T02:54:45;99149.99;;;10.01;56.41
55687;BME280;41911;52.362;4.978;2023-04-01T02:55:16;99152.29;;;9.92;56.39
55687;BME280;41911;52.362;4.978;2023-04-01T02:55:49;99152.39;;;9.85;56.45
55687;BME280;41911;52.362;4.978;2023-04-01T02:56:20;99154.40;;;9.92;56.47
55687;BME280;41911;52.362;4.978;2023-04-01T02:56:51;99151.37;;;10.07;56.25
55687;BME280;41911;52.362;4.978;2023-04-01T02:57:22;99154.39;;;9.94;56.40
55687;BME280;41911;52.362;4.978;2023-04-01T02:57:53;99154.69;;;9.97;56.31
55687;BME280;41911;52.362;4.978;2023-04-01T02:58:24;99157.78;;;9.96;56.52
55687;BME280;41911;52.362;4.978;2023-04-01T02:58:55;99158.16;;;9.82;56.69
55687;BME280;41911;52.362;4.978;2023-04-01T02:59:26;99158.60;;;10.02;56.45
55687;BME280;41911;52.362;4.978;2023-04-01T02:59:57;99158.98;;;9.88;56.60
55687;BME280;41911;52.362;4.978;2023-04-01T03:00:28;99161.47;;;9.04;57.49
55687;BME280;41911;52.362;4.978;2023-04-01T03:00:59;99161.27;;;9.72;57.00
55687;BME280;41911;52.362;4.978;2023-04-01T03:01:30;99161.30;;;9.47;57.47
55687;BME280;41911;52.362;4.978;2023-04-01T03:02:01;99162.74;;;9.63;57.21
55687;BME280;41911;52.362;4.978;2023-04-01T03:02:32;99162.65;;;9.74;57.02